createdAt,value
2022-08-26T00:00:11.243Z,26.52
2022-08-26T00:02:40.119Z,26.53
2022-08-26T00:05:08.374Z,26.50
2022-08-26T00:07:36.485Z,26.45
2022-08-26T00:10:06.188Z,26.39
2022-08-26T00:12:35.892Z,26.35
2022-08-26T00:15:06.304Z,26.31
2022-08-26T00:17:34.541Z,26.29
2022-08-26T00:20:02.626Z,26.19
2022-08-26T00:22:31.231Z,26.01
2022-08-26T00:25:01.714Z,25.91
2022-08-26T00:27:33.867Z,25.78
2022-08-26T00:30:02.593Z,25.66
2022-08-26T00:32:31.817Z,25.60
2022-08-26T00:35:02.483Z,25.50
2022-08-26T00:37:30.387Z,25.41
2022-08-26T00:39:58.278Z,25.32
2022-08-26T00:42:28.740Z,25.30
2022-08-26T00:44:56.886Z,25.31
2022-08-26T00:47:37.475Z,25.25
2022-08-26T00:50:11.628Z,25.26
2022-08-26T00:52:40.676Z,25.28
2022-08-26T00:55:20.247Z,25.25
2022-08-26T00:57:50.460Z,25.23
2022-08-26T01:00:24.121Z,25.20
2022-08-26T01:02:52.165Z,25.21
2022-08-26T01:05:21.625Z,25.23
2022-08-26T01:07:49.815Z,25.24
2022-08-26T01:10:22.284Z,25.22
2022-08-26T01:12:56.481Z,25.16
2022-08-26T01:15:32.803Z,25.17
2022-08-26T01:18:01.401Z,25.18
2022-08-26T01:20:39.290Z,25.15
2022-08-26T01:23:10.842Z,25.13
2022-08-26T01:25:47.096Z,25.08
2022-08-26T01:28:21.674Z,24.95
2022-08-26T01:30:52.978Z,24.84
2022-08-26T01:33:24.495Z,24.75
2022-08-26T01:35:52.500Z,24.74
2022-08-26T01:38:23.733Z,24.76
2022-08-26T01:40:52.053Z,24.69
2022-08-26T01:43:28.367Z,24.68
2022-08-26T01:45:56.995Z,24.71
2022-08-26T01:48:29.246Z,24.69
2022-08-26T01:50:57.480Z,24.63
2022-08-26T01:53:28.033Z,24.70
2022-08-26T01:56:00.613Z,24.71
2022-08-26T01:58:33.739Z,24.70
2022-08-26T02:01:02.939Z,24.64
2022-08-26T02:03:32.487Z,24.58
2022-08-26T02:06:03.911Z,24.52
2022-08-26T02:08:39.262Z,24.51
2022-08-26T02:11:07.616Z,24.51
2022-08-26T02:13:39.830Z,24.51
2022-08-26T02:16:09.403Z,24.53
2022-08-26T02:18:39.831Z,24.49
2022-08-26T02:21:09.150Z,24.41
2022-08-26T02:23:39.186Z,24.35
2022-08-26T02:26:11.138Z,24.31
2022-08-26T02:28:46.272Z,24.17
2022-08-26T02:31:14.204Z,24.19
2022-08-26T02:33:43.046Z,24.18
2022-08-26T02:36:13.398Z,24.21
2022-08-26T02:38:43.154Z,24.28
2022-08-26T02:41:11.270Z,24.25
2022-08-26T02:43:39.129Z,24.22
2022-08-26T02:46:07.389Z,24.22
2022-08-26T02:48:35.264Z,24.27
2022-08-26T02:51:04.377Z,24.34
2022-08-26T02:53:35.532Z,24.34
2022-08-26T02:56:05.584Z,24.34
2022-08-26T02:58:33.551Z,24.34
2022-08-26T03:01:02.127Z,24.29
2022-08-26T03:03:33.561Z,24.25
2022-08-26T03:06:01.563Z,24.22
2022-08-26T03:08:29.385Z,24.17
2022-08-26T03:10:57.270Z,24.09
2022-08-26T03:13:26.496Z,24.14
2022-08-26T03:15:55.175Z,24.13
2022-08-26T03:18:24.337Z,24.07
2022-08-26T03:20:52.312Z,24.03
2022-08-26T03:23:20.174Z,24.00
2022-08-26T03:25:50.951Z,24.03
2022-08-26T03:28:19.491Z,24.02
2022-08-26T03:30:49.138Z,24.09
2022-08-26T03:33:17.345Z,24.12
2022-08-26T03:35:48.026Z,24.05
2022-08-26T03:38:19.781Z,23.99
2022-08-26T03:40:48.637Z,23.94
2022-08-26T03:43:19.047Z,23.96
2022-08-26T03:45:48.264Z,23.98
2022-08-26T03:48:19.116Z,23.99
2022-08-26T03:50:47.005Z,23.97
2022-08-26T03:53:16.648Z,23.98
2022-08-26T03:55:48.498Z,23.96
2022-08-26T03:58:20.483Z,23.97
2022-08-26T04:00:51.409Z,23.92
2022-08-26T04:03:37.606Z,23.87
2022-08-26T04:06:06.013Z,23.91
2022-08-26T04:08:33.901Z,23.97
2022-08-26T04:11:01.831Z,23.95
2022-08-26T04:13:29.991Z,23.92
2022-08-26T04:15:59.606Z,23.86
2022-08-26T04:18:36.915Z,23.84
2022-08-26T04:21:05.599Z,23.85
2022-08-26T04:23:46.894Z,23.87
2022-08-26T04:26:15.921Z,23.87
2022-08-26T04:28:44.096Z,23.85
2022-08-26T04:31:14.862Z,23.88
2022-08-26T04:33:43.373Z,23.87
2022-08-26T04:36:11.230Z,23.92
2022-08-26T04:38:39.209Z,23.93
2022-08-26T04:41:15.649Z,23.93
2022-08-26T04:43:45.618Z,23.92
2022-08-26T04:46:22.061Z,23.93
2022-08-26T04:48:51.298Z,23.89
2022-08-26T04:51:20.345Z,23.93
2022-08-26T04:53:48.708Z,23.95
2022-08-26T04:56:20.039Z,23.99
2022-08-26T04:58:49.560Z,23.95
2022-08-26T05:01:18.996Z,23.91
2022-08-26T05:03:46.938Z,23.82
2022-08-26T05:06:15.424Z,23.84
2022-08-26T05:08:47.003Z,23.84
2022-08-26T05:11:15.409Z,23.86
2022-08-26T05:13:43.635Z,23.83
2022-08-26T05:16:14.062Z,23.85
2022-08-26T05:18:45.813Z,23.80
2022-08-26T05:21:20.020Z,23.79
2022-08-26T05:23:48.380Z,23.72
2022-08-26T05:26:17.565Z,23.72
2022-08-26T05:28:51.072Z,23.74
2022-08-26T05:31:25.530Z,23.78
2022-08-26T05:33:55.358Z,23.79
2022-08-26T05:36:27.006Z,23.77
2022-08-26T05:38:55.256Z,23.80
2022-08-26T05:41:27.641Z,23.86
2022-08-26T05:44:04.089Z,23.88
2022-08-26T05:46:31.940Z,23.91
2022-08-26T05:49:01.610Z,23.92
2022-08-26T05:51:30.977Z,23.89
2022-08-26T05:54:00.332Z,23.79
2022-08-26T05:56:29.081Z,23.77
2022-08-26T05:58:58.576Z,23.76
2022-08-26T06:01:29.773Z,23.75
2022-08-26T06:03:59.669Z,23.73
2022-08-26T06:06:33.740Z,23.73
2022-08-26T06:09:03.543Z,23.76
2022-08-26T06:11:33.397Z,23.78
2022-08-26T06:14:05.898Z,23.75
2022-08-26T06:16:35.814Z,23.75
2022-08-26T06:19:10.366Z,23.68
2022-08-26T06:21:42.610Z,23.73
2022-08-26T06:24:31.043Z,23.85
2022-08-26T06:27:01.835Z,23.91
2022-08-26T06:29:31.570Z,23.98
2022-08-26T06:31:59.720Z,23.99
2022-08-26T06:34:30.508Z,23.96
2022-08-26T06:37:03.660Z,23.94
2022-08-26T06:39:32.588Z,23.97
2022-08-26T06:42:02.654Z,23.95
2022-08-26T06:44:32.410Z,23.98
2022-08-26T06:47:00.392Z,24.00
2022-08-26T06:49:28.294Z,24.01
2022-08-26T06:51:58.201Z,23.97
2022-08-26T06:54:28.384Z,23.99
2022-08-26T06:56:57.485Z,24.01
2022-08-26T06:59:25.659Z,24.04
2022-08-26T07:01:54.976Z,24.03
2022-08-26T07:04:24.661Z,24.03
2022-08-26T07:06:55.709Z,24.02
2022-08-26T07:09:25.378Z,23.99
2022-08-26T07:11:56.567Z,23.96
2022-08-26T07:14:26.100Z,23.94
2022-08-26T07:16:54.128Z,23.94
2022-08-26T07:19:28.541Z,23.97
2022-08-26T07:22:01.797Z,24.00
2022-08-26T07:24:31.296Z,24.04
2022-08-26T07:27:02.819Z,24.08
2022-08-26T07:29:31.485Z,24.05
2022-08-26T07:31:59.705Z,24.04
2022-08-26T07:34:27.953Z,24.10
2022-08-26T07:36:57.159Z,24.16
2022-08-26T07:39:28.502Z,24.17
2022-08-26T07:42:00.165Z,24.18
2022-08-26T07:44:30.358Z,24.20
2022-08-26T07:46:58.797Z,24.10
2022-08-26T07:49:28.151Z,24.09
2022-08-26T07:51:56.979Z,24.15
2022-08-26T07:54:26.982Z,24.24
2022-08-26T07:56:56.095Z,24.31
2022-08-26T07:59:24.977Z,24.35
2022-08-26T08:01:55.051Z,24.33
2022-08-26T08:04:26.554Z,24.31
2022-08-26T08:06:56.077Z,24.30
2022-08-26T08:09:25.289Z,24.32
2022-08-26T08:11:54.055Z,24.32
2022-08-26T08:14:22.407Z,24.34
2022-08-26T08:16:51.165Z,24.35
2022-08-26T08:19:24.435Z,24.32
2022-08-26T08:22:05.277Z,24.28
2022-08-26T08:24:45.123Z,24.31
2022-08-26T08:27:13.152Z,24.36
2022-08-26T08:29:41.611Z,24.43
2022-08-26T08:32:11.420Z,24.45
2022-08-26T08:37:14.067Z,24.47
2022-08-26T08:39:42.060Z,24.50
2022-08-26T08:42:35.544Z,24.53
2022-08-26T08:45:08.959Z,24.61
2022-08-26T08:47:42.137Z,24.61
2022-08-26T08:50:21.837Z,24.64
2022-08-26T08:52:57.412Z,24.66
2022-08-26T08:55:32.443Z,24.69
2022-08-26T08:58:06.546Z,24.73
2022-08-26T09:00:44.203Z,24.73
2022-08-26T09:03:26.830Z,24.74
2022-08-26T09:05:56.635Z,24.77
2022-08-26T09:08:29.378Z,24.78
2022-08-26T09:10:59.753Z,24.82
2022-08-26T09:13:28.146Z,24.80
2022-08-26T09:16:06.661Z,24.78
2022-08-26T09:19:00.516Z,24.72
2022-08-26T09:21:30.462Z,24.75
2022-08-26T09:23:59.530Z,24.79
2022-08-26T09:26:31.084Z,24.87
2022-08-26T09:29:01.030Z,24.90
2022-08-26T09:31:31.098Z,24.82
2022-08-26T09:34:17.395Z,24.80
2022-08-26T09:36:49.015Z,24.84
2022-08-26T09:39:33.797Z,24.87
2022-08-26T09:42:11.720Z,24.97
2022-08-26T09:44:59.686Z,25.05
2022-08-26T09:47:31.686Z,25.20
2022-08-26T09:50:09.420Z,25.16
2022-08-26T09:52:40.394Z,25.23
2022-08-26T09:55:14.774Z,25.33
2022-08-26T09:57:51.106Z,25.36
2022-08-26T10:00:34.728Z,25.32
2022-08-26T10:03:10.767Z,25.39
2022-08-26T10:05:44.563Z,25.40
2022-08-26T10:08:27.350Z,25.40
2022-08-26T10:10:57.284Z,25.47
2022-08-26T10:13:30.161Z,25.48
2022-08-26T10:16:07.007Z,25.46
2022-08-26T10:18:42.223Z,25.47
2022-08-26T10:21:15.456Z,25.35
2022-08-26T10:23:50.917Z,25.32
2022-08-26T10:26:26.492Z,25.25
2022-08-26T10:29:03.777Z,25.29
2022-08-26T10:31:40.725Z,25.27
2022-08-26T10:34:09.935Z,25.33
2022-08-26T10:37:13.471Z,25.34
2022-08-26T10:39:48.212Z,25.43
2022-08-26T10:42:23.320Z,25.48
2022-08-26T10:44:54.900Z,25.54
2022-08-26T10:47:33.297Z,25.61
2022-08-26T10:50:03.651Z,25.62
2022-08-26T10:52:46.319Z,25.52
2022-08-26T10:55:24.360Z,25.59
2022-08-26T10:58:00.221Z,25.62
2022-08-26T11:00:55.944Z,25.71
2022-08-26T11:03:34.429Z,25.74
2022-08-26T11:06:23.692Z,25.76
2022-08-26T11:08:53.606Z,25.87
2022-08-26T11:11:50.802Z,25.90
2022-08-26T11:14:53.566Z,25.86
2022-08-26T11:17:58.130Z,25.87
2022-08-26T11:20:37.266Z,25.93
2022-08-26T11:23:40.382Z,25.90
2022-08-26T11:26:20.401Z,25.97
2022-08-26T11:29:12.108Z,25.98
2022-08-26T11:31:56.321Z,25.90
2022-08-26T11:34:54.028Z,25.83
2022-08-26T11:37:27.297Z,25.85
2022-08-26T11:39:56.945Z,25.85
2022-08-26T11:42:33.190Z,25.88
2022-08-26T11:45:14.356Z,25.93
2022-08-26T11:47:42.365Z,25.93
2022-08-26T11:50:14.455Z,25.92
2022-08-26T11:52:42.303Z,25.88
2022-08-26T11:55:14.947Z,25.92
2022-08-26T11:57:47.492Z,25.95
2022-08-26T12:00:22.640Z,26.04
2022-08-26T12:02:52.603Z,26.13
2022-08-26T12:05:30.954Z,26.14
2022-08-26T12:08:02.851Z,26.10
2022-08-26T12:10:33.680Z,26.15
2022-08-26T12:13:03.170Z,26.20
2022-08-26T12:15:34.167Z,26.23
2022-08-26T12:18:28.954Z,26.18
2022-08-26T12:20:59.846Z,26.22
2022-08-26T12:23:37.326Z,26.25
2022-08-26T12:26:08.465Z,26.24
2022-08-26T12:28:43.753Z,26.32
2022-08-26T12:31:13.277Z,26.33
2022-08-26T12:33:45.328Z,26.29
2022-08-26T12:36:13.567Z,26.23
2022-08-26T12:38:41.542Z,26.23
2022-08-26T12:41:09.456Z,26.28
2022-08-26T12:43:43.062Z,26.27
2022-08-26T12:46:15.326Z,26.23
2022-08-26T12:48:48.453Z,26.30
2022-08-26T12:51:25.169Z,26.21
2022-08-26T12:53:53.729Z,26.18
2022-08-26T12:56:32.441Z,26.08
2022-08-26T12:59:12.259Z,26.08
2022-08-26T13:01:45.297Z,26.06
2022-08-26T13:04:36.746Z,25.96
2022-08-26T13:07:22.949Z,25.94
2022-08-26T13:09:51.879Z,26.00
2022-08-26T13:12:31.160Z,26.05
2022-08-26T13:14:59.924Z,26.19
2022-08-26T13:17:30.447Z,26.26
2022-08-26T13:20:03.541Z,26.18
2022-08-26T13:22:31.969Z,26.14
2022-08-26T13:24:59.854Z,26.18
2022-08-26T13:27:28.516Z,26.20
2022-08-26T13:29:58.985Z,26.20
2022-08-26T13:32:27.813Z,26.23
2022-08-26T13:34:58.896Z,26.22
2022-08-26T13:37:34.328Z,26.15
2022-08-26T13:40:04.864Z,26.16
2022-08-26T13:42:32.919Z,26.19
2022-08-26T13:45:02.383Z,26.18
2022-08-26T13:47:30.754Z,26.17
2022-08-26T13:50:00.059Z,26.14
2022-08-26T13:52:30.688Z,26.08
2022-08-26T13:54:59.302Z,26.12
2022-08-26T13:57:28.503Z,26.05
2022-08-26T13:59:59.016Z,26.02
2022-08-26T14:02:27.488Z,26.01
2022-08-26T14:04:55.953Z,26.07
2022-08-26T14:07:26.928Z,26.00
2022-08-26T14:09:54.987Z,25.96
2022-08-26T14:12:22.809Z,25.91
2022-08-26T14:14:50.677Z,25.88
2022-08-26T14:17:22.816Z,25.86
2022-08-26T14:19:51.677Z,25.85
2022-08-26T14:22:22.439Z,25.82
2022-08-26T14:24:52.357Z,25.84
2022-08-26T14:27:20.166Z,25.86
2022-08-26T14:29:47.979Z,25.86
2022-08-26T14:32:23.132Z,25.78
2022-08-26T14:34:51.234Z,25.78
2022-08-26T14:37:19.230Z,25.82
2022-08-26T14:39:47.659Z,25.81
2022-08-26T14:42:19.947Z,25.82
2022-08-26T14:44:57.598Z,25.75
2022-08-26T14:47:25.623Z,25.79
2022-08-26T14:49:53.532Z,25.79
2022-08-26T14:52:21.557Z,25.75
2022-08-26T14:54:48.422Z,25.74
2022-08-26T14:57:24.178Z,25.71
2022-08-26T14:59:52.006Z,25.65
2022-08-26T15:02:22.261Z,25.58
2022-08-26T15:05:00.836Z,25.50
2022-08-26T15:07:28.709Z,25.44
2022-08-26T15:09:56.616Z,25.42
2022-08-26T15:12:26.162Z,25.38
2022-08-26T15:14:53.991Z,25.36
2022-08-26T15:17:21.840Z,25.41
2022-08-26T15:19:49.671Z,25.39
2022-08-26T15:22:17.636Z,25.41
2022-08-26T15:24:45.655Z,25.46
2022-08-26T15:27:13.629Z,25.40
2022-08-26T15:29:42.809Z,25.34
2022-08-26T15:32:11.046Z,25.29
2022-08-26T15:34:39.300Z,25.25
2022-08-26T15:37:08.405Z,25.15
2022-08-26T15:39:36.686Z,25.20
2022-08-26T15:42:05.300Z,25.25
2022-08-26T15:44:34.087Z,25.31
2022-08-26T15:47:03.492Z,25.33
2022-08-26T15:49:31.416Z,25.27
2022-08-26T15:51:59.316Z,25.25
2022-08-26T15:54:27.193Z,25.28
2022-08-26T15:56:55.079Z,25.27
2022-08-26T15:59:23.472Z,25.28
2022-08-26T16:01:51.593Z,25.36
2022-08-26T16:04:21.401Z,25.37
2022-08-26T16:06:52.127Z,25.42
2022-08-26T16:09:22.838Z,25.50
2022-08-26T16:11:52.120Z,25.49
2022-08-26T16:14:19.990Z,25.43
2022-08-26T16:16:48.171Z,25.38
2022-08-26T16:19:16.467Z,25.35
2022-08-26T16:21:46.447Z,25.25
2022-08-26T16:24:14.306Z,25.21
2022-08-26T16:26:43.944Z,25.11
2022-08-26T16:29:13.945Z,25.07
2022-08-26T16:31:42.107Z,25.01
2022-08-26T16:34:10.746Z,25.07
2022-08-26T16:36:40.143Z,25.12
2022-08-26T16:39:09.874Z,25.09
2022-08-26T16:41:38.398Z,25.06
2022-08-26T16:44:08.262Z,24.98
2022-08-26T16:46:36.936Z,24.96
2022-08-26T16:49:05.460Z,24.98
2022-08-26T16:51:37.752Z,24.95
2022-08-26T16:54:07.446Z,25.04
2022-08-26T16:56:36.858Z,24.97
2022-08-26T16:59:06.156Z,24.96
2022-08-26T17:01:34.089Z,24.87
2022-08-26T17:04:02.138Z,24.87
2022-08-26T17:06:30.083Z,24.85
2022-08-26T17:08:58.013Z,24.83
2022-08-26T17:11:25.859Z,24.83
2022-08-26T17:13:55.161Z,24.81
2022-08-26T17:16:26.704Z,24.78
2022-08-26T17:18:56.142Z,24.79
2022-08-26T17:21:24.606Z,24.81
2022-08-26T17:23:52.499Z,24.86
2022-08-26T17:26:20.726Z,24.86
2022-08-26T17:28:48.784Z,24.87
2022-08-26T17:31:18.253Z,24.88
2022-08-26T17:33:50.284Z,24.82
2022-08-26T17:36:21.649Z,24.77
2022-08-26T17:38:50.342Z,24.69
2022-08-26T17:41:22.179Z,24.72
2022-08-26T17:43:50.305Z,24.72
2022-08-26T17:46:20.166Z,24.71
2022-08-26T17:48:48.284Z,24.69
2022-08-26T17:51:19.172Z,24.70
2022-08-26T17:53:48.875Z,24.66
2022-08-26T17:56:20.261Z,24.64
2022-08-26T17:58:51.865Z,24.58
2022-08-26T18:01:22.168Z,24.51
2022-08-26T18:03:50.560Z,24.50
2022-08-26T18:06:18.621Z,24.51
2022-08-26T18:08:46.977Z,24.54
2022-08-26T18:11:17.388Z,24.50
2022-08-26T18:13:47.571Z,24.39
2022-08-26T18:16:17.014Z,24.37
2022-08-26T18:18:47.714Z,24.36
2022-08-26T18:21:17.096Z,24.36
2022-08-26T18:23:45.543Z,24.36
2022-08-26T18:26:18.070Z,24.32
2022-08-26T18:28:46.412Z,24.29
2022-08-26T18:31:15.309Z,24.26
2022-08-26T18:33:44.122Z,24.18
2022-08-26T18:36:18.514Z,24.12
2022-08-26T18:38:47.035Z,24.16
2022-08-26T18:41:15.458Z,24.17
2022-08-26T18:43:43.587Z,24.10
2022-08-26T18:46:12.234Z,24.10
2022-08-26T18:48:42.642Z,24.15
2022-08-26T18:51:18.900Z,24.16
2022-08-26T18:53:47.728Z,24.17
2022-08-26T18:56:18.152Z,24.16
2022-08-26T18:58:46.804Z,24.15
2022-08-26T19:01:16.334Z,24.12
2022-08-26T19:03:44.497Z,24.02
2022-08-26T19:06:15.466Z,23.93
2022-08-26T19:08:45.013Z,23.91
2022-08-26T19:11:14.308Z,23.89
2022-08-26T19:13:42.333Z,23.87
2022-08-26T19:16:16.452Z,23.86
2022-08-26T19:18:44.744Z,23.78
2022-08-26T19:21:12.694Z,23.63
2022-08-26T19:23:40.723Z,23.57
2022-08-26T19:26:11.136Z,23.46
2022-08-26T19:28:40.869Z,23.46
2022-08-26T19:31:10.883Z,23.46
2022-08-26T19:33:39.563Z,23.49
2022-08-26T19:36:11.503Z,23.50
2022-08-26T19:38:43.236Z,23.45
2022-08-26T19:41:14.040Z,23.39
2022-08-26T19:43:42.575Z,23.37
2022-08-26T19:46:12.835Z,23.35
2022-08-26T19:48:44.054Z,23.39
2022-08-26T19:51:14.172Z,23.27
2022-08-26T19:53:42.264Z,23.19
2022-08-26T19:56:10.445Z,23.25
2022-08-26T19:58:39.897Z,23.21
2022-08-26T20:01:08.776Z,23.19
2022-08-26T20:03:37.699Z,23.11
2022-08-26T20:06:06.853Z,23.04
2022-08-26T20:08:35.352Z,23.03
2022-08-26T20:11:05.237Z,23.03
2022-08-26T20:13:33.431Z,23.01
2022-08-26T20:16:03.136Z,23.01
2022-08-26T20:18:48.644Z,22.99
2022-08-26T20:21:29.229Z,22.96
2022-08-26T20:24:00.618Z,22.92
2022-08-26T20:26:29.966Z,22.90
2022-08-26T20:28:58.308Z,22.84
2022-08-26T20:31:28.672Z,22.75
2022-08-26T20:33:56.823Z,22.69
2022-08-26T20:36:29.350Z,22.66
2022-08-26T20:38:57.918Z,22.61
2022-08-26T20:41:26.441Z,22.56
2022-08-26T20:43:54.475Z,22.54
2022-08-26T20:46:25.121Z,22.56
2022-08-26T20:48:55.666Z,22.52
2022-08-26T20:51:26.119Z,22.46
2022-08-26T20:53:54.129Z,22.45
2022-08-26T20:56:24.367Z,22.45
2022-08-26T20:58:54.089Z,22.43
2022-08-26T21:01:25.289Z,22.46
2022-08-26T21:03:55.804Z,22.51
2022-08-26T21:06:24.359Z,22.55
2022-08-26T21:08:52.624Z,22.63
2022-08-26T21:11:21.508Z,22.65
2022-08-26T21:14:04.420Z,22.61
2022-08-26T21:16:36.808Z,22.43
2022-08-26T21:19:07.997Z,22.39
2022-08-26T21:21:36.258Z,22.29
2022-08-26T21:24:04.884Z,22.24
2022-08-26T21:26:34.335Z,22.30
2022-08-26T21:29:03.192Z,22.32
2022-08-26T21:31:32.037Z,22.30
2022-08-26T21:34:00.759Z,22.27
2022-08-26T21:36:30.170Z,22.13
2022-08-26T21:38:58.122Z,22.05
2022-08-26T21:41:27.729Z,21.95
2022-08-26T21:43:59.229Z,21.99
2022-08-26T21:46:29.645Z,21.95
2022-08-26T21:49:00.262Z,21.98
2022-08-26T21:51:31.385Z,22.03
2022-08-26T21:54:00.597Z,21.98
2022-08-26T21:56:31.643Z,21.90
2022-08-26T21:59:00.848Z,21.93
2022-08-26T22:01:31.901Z,21.94
2022-08-26T22:04:00.391Z,21.92
2022-08-26T22:06:29.917Z,21.97
2022-08-26T22:08:58.108Z,21.92
2022-08-26T22:11:27.523Z,21.91
2022-08-26T22:13:56.799Z,21.95
2022-08-26T22:16:26.891Z,21.92
2022-08-26T22:18:55.312Z,21.80
2022-08-26T22:21:25.202Z,21.82
2022-08-26T22:23:58.077Z,21.87
2022-08-26T22:26:28.771Z,21.91
2022-08-26T22:28:59.195Z,21.89
2022-08-26T22:31:37.542Z,21.80
2022-08-26T22:34:08.061Z,21.81
2022-08-26T22:36:43.219Z,21.81
2022-08-26T22:39:14.837Z,21.78
2022-08-26T22:41:43.337Z,21.77
2022-08-26T22:44:12.541Z,21.74
2022-08-26T22:46:41.630Z,21.66
2022-08-26T22:49:10.251Z,21.66
2022-08-26T22:51:38.191Z,21.70
2022-08-26T22:54:06.695Z,21.71
2022-08-26T22:56:36.937Z,21.65
2022-08-26T22:59:05.384Z,21.61
2022-08-26T23:01:36.648Z,21.56
2022-08-26T23:04:06.299Z,21.45
2022-08-26T23:06:36.483Z,21.40
2022-08-26T23:09:05.266Z,21.35
2022-08-26T23:11:33.123Z,21.29
2022-08-26T23:14:06.289Z,21.30
2022-08-26T23:16:38.014Z,21.25
2022-08-26T23:19:07.894Z,21.17
2022-08-26T23:24:04.073Z,21.21
2022-08-26T23:26:32.235Z,21.20
2022-08-26T23:29:00.255Z,21.13
2022-08-26T23:31:30.075Z,21.05
2022-08-26T23:34:15.490Z,21.02
2022-08-26T23:36:45.304Z,21.00
2022-08-26T23:39:15.223Z,20.99
2022-08-26T23:41:43.707Z,21.02
2022-08-26T23:44:12.297Z,21.03
2022-08-26T23:46:41.738Z,21.06
2022-08-26T23:49:09.945Z,21.04
2022-08-26T23:51:53.295Z,21.08
2022-08-26T23:54:21.148Z,21.10
2022-08-26T23:56:48.976Z,21.07
2022-08-26T23:59:16.847Z,21.03
